Eulenschwang, Germany

2:13 PM CET on February 20, 2017 (GMT +0100)
Altkirchner Straße | | Change Station

Elev 2237 ft 47.94 °N, 11.58 °E | Updated 4 minutes ago

Mostly Cloudy
Mostly Cloudy
48.9 °F
Feels Like 49 °F
N
1.9
Wind Variable Wind from NW
Gusts 6.8 mph

Today
High -- | Low -- °F
--% Chance of Precip.
Yesterday
High -- | Low -- °F
Precip. -- in
Pressure 30.15 in
Visibility 6.2 miles
Clouds Scattered Clouds 2600 ft
Scattered Clouds 6000 ft
Windchill 49 °F
Dew Point 49 °F
Humidity 100%
Rainfall 0.02 in
Snow Depth Not available.
7:11 AM 5:44 PM
Waning Crescent, 34% visible
METAR EDDM 201250Z 27014KT 240V300 9999 SCT026 SCT060 08/02 Q1021 NOSIG
Pressure 30.15 in
Visibility 6.2 miles
Clouds Scattered Clouds 2600 ft
Scattered Clouds 6000 ft
Windchill 49 °F
Dew Point 49 °F
Humidity 100%
Rainfall 0.02 in
Snow Depth Not available.
7:11 AM 5:44 PM
Waning Crescent, 34% visible
METAR EDDM 201250Z 27014KT 240V300 9999 SCT026 SCT060 08/02 Q1021 NOSIG

Get Your Daily Forecast Email!

Thanks for signing up!

Be on the lookout for a verification email in your inbox.

You'll start receiving the daily forecast at 8 AM.

×

10-Day Weather Forecast

×

Almanac

Astronomy

Feb. 20, 2017 Rise Set
Actual Time
Civil Twilight
Nautical Twilight
Astronomical Twilight
Moon
Length of Visible Light
Length of Day
Tomorrow will be .
, % of the Moon is Illuminated

Today's Extremes

Country Highs Country Lows

Community

WunderPhotos

Upload Photos

1,962,540 photos uploaded!

WunderBlog® & News

Nearby

Air Quality

  Air Quality AQ Index Pollutant
Not available.

Snow Depth

Station Depth Elevation

Earthquake Activity

City Distance Mag. Time & Date
Minimum magnitude displayed is 2.5.

Coastal Water Temperatures

Place Temperature

Stations

Nearby Weather Stations

Station Location Temp. Windchill Dew Point Humidity Wind Precip. Elev Updated Type